createdAt,value
2023-08-11T00:00:56.349Z,26.79
2023-08-11T00:06:00.567Z,26.72
2023-08-11T00:11:02.744Z,26.66
2023-08-11T00:16:09.818Z,26.59
2023-08-11T00:21:20.747Z,26.55
2023-08-11T00:26:33.872Z,26.46
2023-08-11T00:31:37.083Z,26.42
2023-08-11T00:36:43.424Z,26.37
2023-08-11T00:41:54.521Z,26.30
2023-08-11T00:47:00.514Z,26.27
2023-08-11T00:52:07.603Z,26.25
2023-08-11T00:57:12.345Z,26.21
2023-08-11T01:02:15.584Z,26.19
2023-08-11T01:07:35.163Z,26.15
2023-08-11T01:12:53.820Z,26.15
2023-08-11T01:21:12.971Z,26.12
2023-08-11T01:26:18.294Z,26.11
2023-08-11T01:31:20.512Z,26.13
2023-08-11T01:36:24.370Z,26.12
2023-08-11T01:41:30.607Z,26.11
2023-08-11T01:46:39.344Z,26.13
2023-08-11T01:51:44.724Z,26.10
2023-08-11T01:56:49.396Z,26.10
2023-08-11T02:01:51.643Z,26.08
2023-08-11T02:06:58.608Z,26.03
2023-08-11T02:12:03.361Z,26.06
2023-08-11T02:17:18.866Z,26.02
2023-08-11T02:22:21.058Z,25.98
2023-08-11T02:27:23.289Z,25.92
2023-08-11T02:32:27.512Z,25.88
2023-08-11T02:37:31.981Z,25.86
2023-08-11T02:42:39.800Z,25.83
2023-08-11T02:47:44.099Z,25.81
2023-08-11T02:52:47.621Z,25.78
2023-08-11T02:57:49.709Z,25.77
2023-08-11T03:02:51.901Z,25.79
2023-08-11T03:07:56.901Z,25.76
2023-08-11T03:13:01.047Z,25.69
2023-08-11T03:18:04.335Z,25.60
2023-08-11T03:23:06.799Z,25.53
2023-08-11T03:28:17.675Z,25.45
2023-08-11T03:33:21.813Z,25.40
2023-08-11T03:38:39.253Z,25.36
2023-08-11T03:43:43.571Z,25.32
2023-08-11T03:48:51.042Z,25.29
2023-08-11T03:53:59.705Z,25.29
2023-08-11T03:59:05.964Z,25.28
2023-08-11T04:04:11.169Z,25.27
2023-08-11T04:09:18.330Z,25.23
2023-08-11T04:14:26.595Z,25.23
2023-08-11T04:19:32.950Z,25.22
2023-08-11T04:24:36.827Z,25.19
2023-08-11T04:29:39.320Z,25.15
2023-08-11T04:34:42.624Z,25.13
2023-08-11T04:41:19.563Z,25.09
2023-08-11T04:46:21.911Z,25.05
2023-08-11T04:51:24.200Z,24.98
2023-08-11T04:56:26.395Z,24.95
2023-08-11T05:01:28.603Z,24.94
2023-08-11T05:06:30.947Z,24.96
2023-08-11T05:11:33.079Z,24.99
2023-08-11T05:16:35.483Z,25.01
2023-08-11T05:21:40.725Z,25.06
2023-08-11T05:26:43.487Z,25.09
2023-08-11T05:31:45.889Z,25.08
2023-08-11T05:36:47.956Z,25.08
2023-08-11T05:42:27.627Z,25.11
2023-08-11T05:51:19.624Z,25.12
2023-08-11T05:56:21.969Z,25.15
2023-08-11T06:11:18.264Z,25.32
2023-08-11T06:16:20.258Z,25.38
2023-08-11T06:21:22.561Z,25.44
2023-08-11T06:26:24.611Z,25.53
2023-08-11T06:31:26.871Z,25.61
2023-08-11T06:36:31.139Z,25.73
2023-08-11T06:41:34.965Z,25.84
2023-08-11T06:46:38.121Z,25.99
2023-08-11T06:51:40.333Z,26.21
2023-08-11T06:56:42.417Z,26.47
2023-08-11T07:01:44.578Z,26.80
2023-08-11T07:06:47.299Z,27.12
2023-08-11T07:11:49.755Z,27.47
2023-08-11T07:16:55.192Z,27.85
2023-08-11T07:21:57.486Z,28.19
2023-08-11T07:26:59.744Z,28.52
2023-08-11T07:32:04.446Z,28.82
2023-08-11T07:37:09.904Z,29.10
2023-08-11T07:42:14.964Z,29.35
2023-08-11T07:47:17.064Z,29.45
2023-08-11T07:52:19.188Z,29.52
2023-08-11T07:57:21.292Z,29.60
2023-08-11T08:02:23.556Z,29.69
2023-08-11T08:07:25.655Z,29.77
2023-08-11T08:12:27.754Z,29.86
2023-08-11T08:17:36.395Z,29.95
2023-08-11T08:22:39.123Z,30.06
2023-08-11T08:27:41.914Z,30.14
2023-08-11T08:32:44.380Z,30.25
2023-08-11T08:37:46.618Z,30.35
2023-08-11T08:42:53.079Z,30.49
2023-08-11T08:47:58.552Z,30.59
2023-08-11T08:53:05.133Z,30.70
2023-08-11T08:58:10.420Z,30.75
2023-08-11T09:03:14.533Z,30.78
2023-08-11T09:08:21.598Z,30.79
2023-08-11T09:13:27.403Z,30.63
2023-08-11T09:18:30.650Z,30.53
2023-08-11T09:23:33.941Z,30.36
2023-08-11T09:28:38.576Z,30.34
2023-08-11T09:33:40.653Z,30.49
2023-08-11T09:38:50.168Z,30.39
2023-08-11T09:43:57.219Z,30.39
2023-08-11T09:49:02.312Z,30.29
2023-08-11T09:54:08.127Z,30.32
2023-08-11T09:59:20.493Z,30.33
2023-08-11T10:04:37.424Z,30.06
2023-08-11T10:09:40.593Z,30.04
2023-08-11T10:14:43.988Z,30.20
2023-08-11T10:19:46.466Z,30.10
2023-08-11T10:24:51.326Z,30.03
2023-08-11T10:29:55.213Z,30.09
2023-08-11T10:34:58.121Z,30.08
2023-08-11T10:40:08.557Z,30.20
2023-08-11T10:45:15.391Z,30.35
2023-08-11T10:50:19.407Z,30.38
2023-08-11T10:55:22.465Z,30.33
2023-08-11T11:00:24.753Z,30.35
2023-08-11T11:05:27.416Z,30.61
2023-08-11T11:10:43.451Z,30.79
2023-08-11T11:15:51.170Z,30.86
2023-08-11T11:20:54.503Z,30.94
2023-08-11T11:25:56.630Z,31.16
2023-08-11T11:30:58.904Z,31.32
2023-08-11T11:36:01.103Z,31.46
2023-08-11T11:41:03.540Z,31.43
2023-08-11T11:46:15.714Z,31.30
2023-08-11T11:51:25.861Z,31.13
2023-08-11T11:56:31.850Z,30.94
2023-08-11T12:01:36.493Z,30.82
2023-08-11T12:06:38.532Z,30.72
2023-08-11T12:11:40.759Z,30.70
2023-08-11T12:16:45.453Z,30.76
2023-08-11T12:21:53.298Z,30.74
2023-08-11T12:26:56.493Z,30.77
2023-08-11T12:31:59.100Z,30.69
2023-08-11T12:37:01.215Z,30.71
2023-08-11T12:42:03.669Z,30.64
2023-08-11T12:47:06.831Z,30.56
2023-08-11T12:52:09.324Z,30.52
2023-08-11T12:57:11.650Z,30.41
2023-08-11T13:02:15.239Z,30.37
2023-08-11T13:07:19.118Z,30.37
2023-08-11T13:12:21.408Z,30.35
2023-08-11T13:17:23.812Z,30.40
2023-08-11T13:22:26.237Z,30.51
2023-08-11T13:27:33.360Z,30.60
2023-08-11T13:32:35.631Z,30.64
2023-08-11T13:37:38.244Z,30.74
2023-08-11T13:42:43.112Z,30.77
2023-08-11T13:47:45.795Z,30.78
2023-08-11T13:52:47.971Z,30.69
2023-08-11T13:57:50.264Z,30.71
2023-08-11T14:02:52.311Z,30.64
2023-08-11T14:07:54.326Z,30.58
2023-08-11T14:12:56.470Z,30.41
2023-08-11T14:17:58.566Z,30.38
2023-08-11T14:23:00.732Z,30.32
2023-08-11T14:28:04.056Z,30.25
2023-08-11T14:33:06.438Z,30.20
2023-08-11T14:38:08.589Z,30.25
2023-08-11T14:43:12.592Z,30.31
2023-08-11T14:48:16.875Z,30.25
2023-08-11T14:53:22.590Z,30.20
2023-08-11T14:58:24.670Z,30.21
2023-08-11T15:03:31.866Z,30.27
2023-08-11T15:08:35.485Z,30.28
2023-08-11T15:13:38.196Z,30.21
2023-08-11T15:18:41.856Z,30.18
2023-08-11T15:23:43.938Z,30.16
2023-08-11T15:28:46.236Z,30.18
2023-08-11T15:33:48.391Z,30.23
2023-08-11T15:38:54.411Z,30.28
2023-08-11T15:43:56.500Z,30.35
2023-08-11T15:48:58.949Z,30.42
2023-08-11T15:54:01.309Z,30.34
2023-08-11T15:59:06.912Z,30.28
2023-08-11T16:04:09.890Z,30.26
2023-08-11T16:09:14.486Z,30.22
2023-08-11T16:14:19.409Z,30.20
2023-08-11T16:19:25.159Z,30.13
2023-08-11T16:24:27.364Z,30.17
2023-08-11T16:29:29.901Z,30.20
2023-08-11T16:34:34.533Z,30.18
2023-08-11T16:39:36.667Z,30.13
2023-08-11T16:44:39.771Z,30.05
2023-08-11T16:49:42.023Z,30.01
2023-08-11T16:54:49.993Z,29.97
2023-08-11T16:59:53.052Z,29.88
2023-08-11T17:04:55.194Z,29.76
2023-08-11T17:10:01.863Z,29.79
2023-08-11T17:15:04.720Z,29.82
2023-08-11T17:20:11.586Z,29.73
2023-08-11T17:25:16.444Z,29.60
2023-08-11T17:30:18.958Z,29.66
2023-08-11T17:35:22.008Z,29.56
2023-08-11T17:40:24.154Z,29.51
2023-08-11T17:45:26.552Z,29.48
2023-08-11T17:50:35.082Z,29.36
2023-08-11T17:55:37.346Z,29.25
2023-08-11T18:00:50.350Z,29.11
2023-08-11T18:05:53.309Z,29.08
2023-08-11T18:10:56.096Z,29.09
2023-08-11T18:15:58.177Z,29.13
2023-08-11T18:21:02.404Z,29.08
2023-08-11T18:26:10.365Z,29.03
2023-08-11T18:31:13.138Z,28.93
2023-08-11T18:36:18.074Z,28.85
2023-08-11T18:41:21.488Z,28.77
2023-08-11T18:46:23.602Z,28.71
2023-08-11T18:51:26.105Z,28.65
2023-08-11T18:56:28.364Z,28.57
2023-08-11T19:01:30.454Z,28.53
2023-08-11T19:06:34.022Z,28.44
2023-08-11T19:11:36.383Z,28.35
2023-08-11T19:16:40.913Z,28.28
2023-08-11T19:21:45.150Z,28.18
2023-08-11T19:26:47.337Z,28.07
2023-08-11T19:31:49.804Z,28.02
2023-08-11T19:36:52.010Z,27.95
2023-08-11T19:41:54.079Z,27.86
2023-08-11T19:46:56.346Z,27.86
2023-08-11T19:51:58.656Z,27.82
2023-08-11T19:57:08.245Z,27.79
2023-08-11T20:02:12.270Z,27.74
2023-08-11T20:07:14.493Z,27.71
2023-08-11T20:12:16.698Z,27.67
2023-08-11T20:17:18.953Z,27.68
2023-08-11T20:22:21.198Z,27.73
2023-08-11T20:27:23.421Z,27.79
2023-08-11T20:32:25.778Z,27.83
2023-08-11T20:37:28.080Z,27.87
2023-08-11T20:42:30.235Z,27.91
2023-08-11T20:47:32.651Z,27.98
2023-08-11T20:52:34.844Z,28.03
2023-08-11T20:57:36.889Z,28.07
2023-08-11T21:02:39.034Z,28.09
2023-08-11T21:07:48.593Z,28.10
2023-08-11T21:12:50.722Z,28.09
2023-08-11T21:17:54.258Z,28.04
2023-08-11T21:22:56.501Z,28.03
2023-08-11T21:27:58.804Z,28.04
2023-08-11T21:33:01.246Z,28.04
2023-08-11T21:38:04.022Z,28.01
2023-08-11T21:43:06.310Z,28.00
2023-08-11T21:48:09.565Z,28.02
2023-08-11T21:53:22.531Z,28.00
2023-08-11T21:58:25.935Z,27.99
2023-08-11T22:03:28.043Z,27.96
2023-08-11T22:08:30.304Z,27.93
2023-08-11T22:13:32.570Z,27.88
2023-08-11T22:18:34.611Z,27.82
2023-08-11T22:23:36.687Z,27.47
2023-08-11T22:28:40.380Z,27.34
2023-08-11T22:33:42.778Z,27.31
2023-08-11T22:38:45.066Z,27.22
2023-08-11T22:43:47.145Z,27.28
2023-08-11T22:48:54.474Z,27.19
2023-08-11T22:53:56.608Z,27.16
2023-08-11T22:58:58.899Z,27.18
2023-08-11T23:04:04.459Z,27.12
2023-08-11T23:09:09.287Z,27.06
2023-08-11T23:14:18.613Z,27.02
2023-08-11T23:19:29.623Z,27.03
2023-08-11T23:24:34.829Z,26.95
2023-08-11T23:31:24.026Z,26.91
2023-08-11T23:36:39.539Z,26.82
2023-08-11T23:42:21.745Z,26.82
